Time;durP1;ratioP1;P1;durP2;ratioP2;P2;SDS_P1;SDS_P2;PMS_P1;PMS_P2;Temp;Humidity;BMP_temperature;BMP_pressure;BME280_temperature;BME280_humidity;BME280_pressure;Samples;Min_cycle;Max_cycle;Signal;HPM_P1;HPM_P2
2022/02/23 00:01:15;;;;;;;8.27;5.50;;;;;;;9.44;100.00;100021.44;4980771;28;20636;-82
2022/02/23 00:03:41;;;;;;;8.65;5.05;;;;;;;9.37;100.00;100029.78;4984899;28;20239;-83
2022/02/23 00:06:08;;;;;;;9.57;3.88;;;;;;;9.30;100.00;100019.41;4982166;28;20204;-82
2022/02/23 00:08:35;;;;;;;7.32;4.03;;;;;;;9.24;100.00;100020.53;4981448;28;20199;-83
2022/02/23 00:11:03;;;;;;;3.67;2.35;;;;;;;9.22;100.00;100011.69;4976039;28;20200;-82
2022/02/23 00:13:30;;;;;;;5.47;2.45;;;;;;;9.21;100.00;100014.47;4982068;28;20310;-82
2022/02/23 00:15:57;;;;;;;3.53;2.20;;;;;;;9.22;100.00;100011.69;4978384;28;20281;-82
2022/02/23 00:18:23;;;;;;;3.40;2.08;;;;;;;9.25;100.00;100016.94;4979653;28;20190;-82
2022/02/23 00:20:51;;;;;;;4.10;2.63;;;;;;;9.27;100.00;100020.44;4977142;28;20285;-82
2022/02/23 00:23:19;;;;;;;2.50;1.77;;;;;;;9.27;100.00;100025.81;4974427;28;20217;-82
2022/02/23 00:25:45;;;;;;;3.90;2.70;;;;;;;9.22;100.00;100035.88;4974075;28;20185;-82
2022/02/23 00:28:13;;;;;;;6.20;2.00;;;;;;;9.19;100.00;100034.19;4982561;28;20202;-82
2022/02/23 00:30:40;;;;;;;3.67;2.05;;;;;;;9.17;100.00;100030.69;4967537;28;20742;-82
2022/02/23 00:33:07;;;;;;;6.35;1.98;;;;;;;9.13;100.00;100045.22;4962218;28;20189;-81
2022/02/23 00:35:34;;;;;;;3.30;1.58;;;;;;;9.13;100.00;100055.94;4964733;28;20194;-82
2022/02/23 00:38:01;;;;;;;5.00;2.08;;;;;;;9.21;100.00;100052.94;4963201;28;20202;-81
2022/02/23 00:40:28;;;;;;;3.25;2.05;;;;;;;9.22;100.00;100048.44;4960206;28;20587;-81
2022/02/23 00:42:56;;;;;;;3.63;2.45;;;;;;;9.16;100.00;100033.47;4956755;28;20186;-81
2022/02/23 00:45:25;;;;;;;4.15;2.88;;;;;;;9.14;100.00;100038.03;4953099;29;20201;-81
2022/02/23 00:47:52;;;;;;;4.50;2.10;;;;;;;9.24;100.00;100049.25;4955178;29;20565;-80
2022/02/23 00:50:18;;;;;;;5.50;2.58;;;;;;;9.08;100.00;100054.44;4954926;28;20621;-81
2022/02/23 00:52:45;;;;;;;5.78;2.35;;;;;;;9.13;100.00;100047.03;4961568;28;20672;-81
2022/02/23 00:55:12;;;;;;;5.22;2.20;;;;;;;9.08;100.00;100057.13;4959362;28;20192;-81
2022/02/23 00:57:38;;;;;;;4.75;1.80;;;;;;;8.92;100.00;100046.19;4959992;28;20196;-80
2022/02/23 01:00:06;;;;;;;4.75;1.77;;;;;;;8.95;100.00;100052.31;4954380;29;20293;-80
2022/02/23 01:02:34;;;;;;;2.92;1.70;;;;;;;8.88;100.00;100053.50;4963118;28;20197;-80
2022/02/23 01:05:01;;;;;;;3.67;1.63;;;;;;;8.85;100.00;100061.69;4958412;28;20685;-79
2022/02/23 01:07:27;;;;;;;6.65;2.03;;;;;;;8.96;100.00;100059.41;4964666;28;20226;-80
2022/02/23 01:09:54;;;;;;;4.13;2.10;;;;;;;8.88;100.00;100068.75;4957556;28;20278;-80
2022/02/23 01:12:21;;;;;;;7.05;1.98;;;;;;;8.87;100.00;100070.56;4954637;29;20207;-80
2022/02/23 01:14:47;;;;;;;3.40;1.80;;;;;;;8.89;100.00;100083.94;4954389;29;20232;-80
2022/02/23 01:17:14;;;;;;;4.32;2.20;;;;;;;8.91;100.00;100093.66;4960006;28;20643;-80
2022/02/23 01:19:42;;;;;;;3.95;2.10;;;;;;;8.86;100.00;100101.03;4967607;28;20620;-81
2022/02/23 01:22:09;;;;;;;3.35;2.10;;;;;;;8.87;100.00;100096.53;4955551;28;20292;-80
2022/02/23 01:24:35;;;;;;;4.72;2.20;;;;;;;8.81;100.00;100110.22;4961047;28;20216;-81
2022/02/23 01:27:02;;;;;;;4.10;1.85;;;;;;;8.81;100.00;100112.91;4960465;28;20192;-81
2022/02/23 01:29:29;;;;;;;3.35;2.10;;;;;;;8.84;100.00;100119.03;4955027;28;20197;-81
2022/02/23 01:31:55;;;;;;;5.55;2.45;;;;;;;8.84;100.00;100120.81;4960631;28;20229;-81
2022/02/23 01:34:22;;;;;;;4.10;2.42;;;;;;;8.70;100.00;100124.09;4956822;28;20277;-81
2022/02/23 01:36:50;;;;;;;5.75;2.03;;;;;;;8.72;100.00;100123.09;4953542;28;20206;-81
2022/02/23 01:39:17;;;;;;;7.05;2.28;;;;;;;8.84;100.00;100129.78;4961532;28;20194;-80
2022/02/23 01:41:44;;;;;;;4.43;2.58;;;;;;;8.73;100.00;100132.03;4963095;28;20683;-80
2022/02/23 01:44:10;;;;;;;3.92;2.28;;;;;;;8.67;100.00;100130.47;4964450;28;20224;-80
2022/02/23 01:46:37;;;;;;;5.75;2.88;;;;;;;8.70;100.00;100132.16;4960819;28;20288;-81
2022/02/23 01:49:04;;;;;;;3.67;2.17;;;;;;;8.65;100.00;100139.53;4970948;28;20271;-81
2022/02/23 01:51:30;;;;;;;2.10;1.83;;;;;;;8.66;100.00;100136.78;4967932;28;20200;-80
2022/02/23 01:53:58;;;;;;;2.50;2.20;;;;;;;8.60;100.00;100142.41;4969344;28;20676;-82
2022/02/23 01:56:25;;;;;;;4.45;2.22;;;;;;;8.60;100.00;100141.53;4962889;28;20276;-81
2022/02/23 01:58:52;;;;;;;4.90;1.75;;;;;;;8.58;100.00;100138.03;4963988;28;20198;-82
2022/02/23 02:01:18;;;;;;;4.30;2.33;;;;;;;8.60;100.00;100141.53;4967368;28;20610;-81
2022/02/23 02:03:45;;;;;;;4.20;2.17;;;;;;;8.52;100.00;100142.75;4954749;28;20216;-82
2022/02/23 02:06:12;;;;;;;3.58;1.65;;;;;;;8.51;100.00;100137.41;4955862;28;20252;-82
2022/02/23 02:08:39;;;;;;;3.50;1.70;;;;;;;8.44;100.00;100143.97;4966640;28;20280;-82
2022/02/23 02:11:07;;;;;;;4.28;2.00;;;;;;;8.39;100.00;100144.13;4959799;28;20196;-82
2022/02/23 02:13:33;;;;;;;4.05;1.75;;;;;;;8.32;100.00;100145.28;4972677;28;20220;-82
2022/02/23 02:16:00;;;;;;;4.82;1.90;;;;;;;8.39;100.00;100146.81;4970687;28;20689;-82
2022/02/23 02:18:27;;;;;;;5.35;2.00;;;;;;;8.34;100.00;100148.78;4959311;28;20529;-82
2022/02/23 02:20:53;;;;;;;4.00;2.20;;;;;;;8.15;100.00;100156.72;4963149;28;20206;-82
2022/02/23 02:23:21;;;;;;;8.13;2.78;;;;;;;8.10;100.00;100166.75;4961707;28;20280;-82
2022/02/23 02:25:48;;;;;;;4.85;2.20;;;;;;;8.07;100.00;100166.84;4961698;28;20228;-82
2022/02/23 02:28:15;;;;;;;4.35;1.90;;;;;;;8.00;100.00;100160.84;4960328;28;20531;-82
2022/02/23 02:30:41;;;;;;;6.50;2.55;;;;;;;8.05;100.00;100164.25;4954846;28;20232;-82
2022/02/23 02:33:08;;;;;;;5.47;2.17;;;;;;;8.03;100.00;100163.44;4952223;28;20664;-82
2022/02/23 02:35:36;;;;;;;5.57;2.35;;;;;;;7.97;100.00;100158.28;4953794;28;20682;-82
2022/02/23 02:38:04;;;;;;;4.05;2.38;;;;;;;7.87;100.00;100164.97;4960697;28;20193;-82
2022/02/23 02:40:32;;;;;;;4.93;2.33;;;;;;;7.78;100.00;100163.50;4956763;28;20193;-82
2022/02/23 02:42:59;;;;;;;5.95;2.50;;;;;;;7.90;100.00;100175.56;4964506;28;20287;-82
2022/02/23 02:45:26;;;;;;;5.72;2.70;;;;;;;7.84;100.00;100173.97;4958281;28;20276;-81
2022/02/23 02:47:52;;;;;;;5.05;2.45;;;;;;;7.67;100.00;100187.16;4954113;28;20284;-82
2022/02/23 02:50:19;;;;;;;5.78;3.05;;;;;;;7.63;100.00;100188.19;4953575;28;20189;-82
2022/02/23 02:52:46;;;;;;;11.60;3.53;;;;;;;7.48;100.00;100200.31;4955740;28;20275;-82
2022/02/23 02:55:12;;;;;;;6.10;2.80;;;;;;;7.27;100.00;100196.59;4959047;28;20280;-82
2022/02/23 02:57:40;;;;;;;4.15;2.22;;;;;;;7.08;100.00;100204.41;4960725;28;20228;-82
2022/02/23 03:00:10;;;;;;;6.72;2.53;;;;;;;6.97;100.00;100203.91;4965157;28;20191;-82
2022/02/23 03:02:37;;;;;;;4.15;2.80;;;;;;;6.97;100.00;100206.59;4964025;28;20251;-82
2022/02/23 03:05:04;;;;;;;5.60;3.10;;;;;;;6.89;100.00;100210.38;4962664;28;20730;-82
2022/02/23 03:07:31;;;;;;;2.95;2.40;;;;;;;6.84;100.00;100211.47;4955892;28;20211;-82
2022/02/23 03:09:57;;;;;;;8.30;4.10;;;;;;;7.08;100.00;100205.28;4960313;28;20279;-82
2022/02/23 03:12:24;;;;;;;5.78;2.65;;;;;;;7.04;100.00;100213.47;4961229;28;20197;-82
2022/02/23 03:14:52;;;;;;;3.85;3.03;;;;;;;7.03;100.00;100219.75;4965237;28;20287;-82
2022/02/23 03:17:19;;;;;;;6.70;3.22;;;;;;;7.09;100.00;100211.50;4956943;28;20558;-82
2022/02/23 03:19:45;;;;;;;5.60;2.70;;;;;;;7.22;100.00;100220.88;4966471;28;20569;-82
2022/02/23 03:22:12;;;;;;;6.97;2.50;;;;;;;7.20;100.00;100230.75;4961992;28;20188;-82
2022/02/23 03:24:38;;;;;;;7.93;3.10;;;;;;;7.13;100.00;100244.44;4959464;28;20722;-82
2022/02/23 03:27:05;;;;;;;5.35;3.17;;;;;;;7.03;100.00;100247.41;4968022;28;20196;-81
2022/02/23 03:29:32;;;;;;;5.03;3.08;;;;;;;6.97;100.00;100238.72;4959899;28;20284;-81
2022/02/23 03:32:00;;;;;;;6.05;3.35;;;;;;;6.97;100.00;100242.25;4964823;28;20231;-82
2022/02/23 03:34:27;;;;;;;10.27;3.08;;;;;;;6.88;100.00;100247.91;4971675;28;20647;-82
2022/02/23 03:36:53;;;;;;;9.75;3.40;;;;;;;6.96;100.00;100256.56;4958324;28;20279;-81
2022/02/23 03:39:22;;;;;;;4.32;2.63;;;;;;;7.02;100.00;100247.47;4963797;28;20220;-82
2022/02/23 03:41:48;;;;;;;4.30;3.03;;;;;;;6.89;100.00;100249.66;4956509;28;20569;-82
2022/02/23 03:44:15;;;;;;;6.97;2.40;;;;;;;6.69;100.00;100266.34;4963648;28;20725;-81
2022/02/23 03:46:42;;;;;;;5.07;3.13;;;;;;;6.56;100.00;100273.91;4960420;28;20280;-82
2022/02/23 03:49:10;;;;;;;2.95;2.65;;;;;;;6.45;100.00;100270.69;4956294;29;20192;-81
2022/02/23 03:51:36;;;;;;;6.28;2.50;;;;;;;6.42;100.00;100266.31;4966855;28;20203;-81
2022/02/23 03:54:03;;;;;;;3.38;2.83;;;;;;;6.45;100.00;100276.91;4961904;28;20292;-82
2022/02/23 03:59:14;;;;;;;6.03;2.85;;;;;;;6.38;100.00;100280.69;4960507;28;20251;-82
2022/02/23 04:01:45;;;;;;;6.85;4.22;;;;;;;6.38;100.00;100282.50;4963858;28;20184;-81
2022/02/23 04:04:13;;;;;;;12.88;8.85;;;;;;;6.63;100.00;100293.31;4957401;28;20295;-82
2022/02/23 04:06:40;;;;;;;8.98;5.43;;;;;;;6.51;100.00;100288.31;4961360;28;20185;-82
2022/02/23 04:09:08;;;;;;;13.70;8.13;;;;;;;6.39;100.00;100285.09;4964955;28;20216;-82
2022/02/23 04:11:35;;;;;;;16.35;6.97;;;;;;;6.26;100.00;100297.06;4956295;29;20666;-82
2022/02/23 04:14:03;;;;;;;22.02;12.23;;;;;;;6.26;100.00;100297.06;4955833;29;20192;-81
2022/02/23 04:16:30;;;;;;;3.83;3.20;;;;;;;6.19;100.00;100300.84;4965437;28;20203;-83
2022/02/23 04:18:56;;;;;;;5.35;3.00;;;;;;;6.18;100.00;100309.81;4962023;28;20203;-82
2022/02/23 04:21:24;;;;;;;6.05;3.10;;;;;;;6.32;100.00;100304.94;4957049;28;20691;-82
2022/02/23 04:23:51;;;;;;;4.15;3.03;;;;;;;6.48;100.00;100303.53;4963392;28;20280;-82
2022/02/23 04:26:19;;;;;;;6.97;3.70;;;;;;;6.49;100.00;100309.81;4962386;28;20231;-82
2022/02/23 04:28:46;;;;;;;5.68;3.67;;;;;;;6.49;100.00;100307.13;4961192;28;20307;-82
2022/02/23 04:31:13;;;;;;;4.43;3.53;;;;;;;6.51;100.00;100309.72;4962875;28;20223;-81
2022/02/23 04:33:40;;;;;;;6.95;3.75;;;;;;;6.54;100.00;100320.38;4955588;28;20220;-82
2022/02/23 04:36:08;;;;;;;5.80;3.60;;;;;;;6.49;100.00;100317.81;4957318;28;20199;-82
2022/02/23 04:38:37;;;;;;;6.10;3.20;;;;;;;6.03;100.00;100314.66;4948474;28;20714;-82
2022/02/23 04:41:04;;;;;;;6.72;3.60;;;;;;;5.87;100.00;100324.00;4952209;28;20192;-82
2022/02/23 04:43:33;;;;;;;8.77;3.67;;;;;;;5.67;100.00;100326.31;4955602;28;20284;-82
2022/02/23 04:46:00;;;;;;;6.95;3.25;;;;;;;5.50;100.00;100334.78;4955782;28;20556;-82
2022/02/23 04:48:27;;;;;;;8.38;3.33;;;;;;;5.38;100.00;100336.84;4955651;28;20189;-83
2022/02/23 04:50:53;;;;;;;3.88;2.70;;;;;;;5.29;100.00;100339.75;4962171;28;20197;-82
2022/02/23 04:53:20;;;;;;;9.50;4.57;;;;;;;5.17;100.00;100343.59;4955234;28;20204;-82
2022/02/23 04:55:48;;;;;;;4.80;2.83;;;;;;;5.13;100.00;100349.94;4965686;28;20216;-82
2022/02/23 04:58:15;;;;;;;5.15;3.33;;;;;;;5.07;100.00;100347.41;4957867;28;20275;-82
2022/02/23 05:00:42;;;;;;;8.48;3.45;;;;;;;5.14;100.00;100340.13;4961324;28;20198;-82
2022/02/23 05:03:08;;;;;;;5.00;3.35;;;;;;;5.12;100.00;100349.97;4954725;28;20549;-82
2022/02/23 05:05:35;;;;;;;4.30;3.55;;;;;;;5.08;100.00;100349.16;4958247;28;20226;-82
2022/02/23 05:08:02;;;;;;;5.47;3.35;;;;;;;5.08;100.00;100350.94;4957326;28;20189;-82
2022/02/23 05:10:29;;;;;;;3.67;2.55;;;;;;;5.05;100.00;100351.03;4962373;28;20208;-83
2022/02/23 05:12:57;;;;;;;5.45;2.58;;;;;;;4.94;100.00;100362.81;4954475;28;20208;-83
2022/02/23 05:15:24;;;;;;;4.68;2.90;;;;;;;4.90;100.00;100371.78;4958236;28;20181;-81
2022/02/23 05:17:50;;;;;;;6.47;3.03;;;;;;;4.92;100.00;100374.44;4958124;28;20197;-82
2022/02/23 05:20:17;;;;;;;7.60;3.20;;;;;;;4.94;100.00;100384.16;4955550;28;20291;-81
2022/02/23 05:22:45;;;;;;;4.85;3.03;;;;;;;5.05;100.00;100391.94;4955232;28;20199;-82
2022/02/23 05:25:12;;;;;;;5.82;3.97;;;;;;;4.99;100.00;100392.06;4961835;28;20571;-82
2022/02/23 05:27:39;;;;;;;6.03;4.30;;;;;;;4.90;100.00;100387.81;4959175;28;20199;-82
2022/02/23 05:30:08;;;;;;;7.90;4.60;;;;;;;4.82;100.00;100389.78;4956096;28;20203;-82
2022/02/23 05:32:36;;;;;;;6.03;3.42;;;;;;;4.83;100.00;100396.00;4961123;28;20208;-81
2022/02/23 05:35:04;;;;;;;5.13;3.00;;;;;;;4.83;100.00;100407.53;4956802;28;20201;-81
2022/02/23 05:37:30;;;;;;;6.68;4.25;;;;;;;4.95;100.00;100409.06;4956994;28;20613;-81
2022/02/23 05:39:57;;;;;;;6.43;3.53;;;;;;;5.05;100.00;100418.63;4956265;28;20272;-82
2022/02/23 05:42:23;;;;;;;12.43;4.47;;;;;;;5.22;100.00;100420.91;4954766;29;20203;-82
2022/02/23 05:44:50;;;;;;;7.13;5.38;;;;;;;5.26;100.00;100430.59;4954325;29;20315;-83
2022/02/23 05:47:18;;;;;;;12.20;6.05;;;;;;;5.31;100.00;100426.03;4958589;28;20276;-82
2022/02/23 05:49:45;;;;;;;12.00;7.25;;;;;;;5.16;100.00;100429.94;4957803;28;20193;-83
2022/02/23 05:52:13;;;;;;;9.88;4.60;;;;;;;5.07;100.00;100431.97;4955889;28;20200;-81
2022/02/23 05:54:40;;;;;;;6.38;4.80;;;;;;;4.95;100.00;100433.97;4956354;28;20214;-81
2022/02/23 05:57:06;;;;;;;7.65;4.47;;;;;;;5.00;100.00;100432.09;4955158;28;20283;-82
2022/02/23 05:59:33;;;;;;;7.18;4.60;;;;;;;5.06;100.00;100439.06;4960924;28;20275;-82
2022/02/23 06:02:00;;;;;;;8.32;5.30;;;;;;;4.95;100.00;100443.75;4954403;28;20311;-81
2022/02/23 06:04:28;;;;;;;8.30;6.20;;;;;;;4.96;100.00;100456.22;4954317;29;20195;-82
2022/02/23 06:06:54;;;;;;;12.30;6.20;;;;;;;4.99;100.00;100440.97;4954709;29;20196;-84
2022/02/23 06:09:21;;;;;;;10.30;6.10;;;;;;;5.10;100.00;100451.44;4954518;29;20235;-85
2022/02/23 06:11:49;;;;;;;7.88;4.53;;;;;;;4.86;100.00;100444.84;4954299;29;20677;-84
2022/02/23 06:14:16;;;;;;;8.80;5.05;;;;;;;4.71;100.00;100450.50;4955146;29;20188;-84
2022/02/23 06:16:42;;;;;;;8.05;4.95;;;;;;;4.57;100.00;100448.13;4954087;29;20591;-84
2022/02/23 06:19:09;;;;;;;7.18;4.88;;;;;;;4.55;100.00;100445.47;4954680;29;20207;-84
2022/02/23 06:21:37;;;;;;;9.80;5.60;;;;;;;4.34;100.00;100457.44;4950716;28;20293;-80
2022/02/23 06:24:04;;;;;;;11.00;5.82;;;;;;;4.37;100.00;100457.38;4952232;29;20252;-80
2022/02/23 06:26:31;;;;;;;9.88;5.90;;;;;;;4.38;100.00;100464.47;4953366;29;20211;-81
2022/02/23 06:28:57;;;;;;;9.55;6.32;;;;;;;4.27;100.00;100465.56;4952663;29;20230;-81
2022/02/23 06:31:24;;;;;;;12.75;6.85;;;;;;;4.22;100.00;100471.00;4958191;28;20631;-81
2022/02/23 06:33:54;;;;;;;10.85;7.80;;;;;;;4.16;100.00;100468.41;4963617;28;20289;-82
2022/02/23 06:36:21;;;;;;;10.38;7.13;;;;;;;4.03;100.00;100478.44;4964636;28;20684;-81
2022/02/23 06:38:55;;;;;;;12.05;8.18;;;;;;;4.12;100.00;100490.75;4955543;28;20213;-81
2022/02/23 06:41:26;;;;;;;11.57;7.15;;;;;;;4.29;100.00;100487.75;4966683;28;20648;-81
2022/02/23 06:44:00;;;;;;;12.23;7.45;;;;;;;4.27;100.00;100485.09;4965467;28;20184;-82
2022/02/23 06:46:26;;;;;;;13.35;6.25;;;;;;;4.36;100.00;100486.72;4972189;28;20207;-82
2022/02/23 06:48:53;;;;;;;13.73;7.38;;;;;;;4.49;100.00;100493.59;4960124;28;20264;-81
2022/02/23 06:51:20;;;;;;;11.07;6.95;;;;;;;4.47;100.00;100491.88;4971956;28;20243;-82
2022/02/23 06:53:47;;;;;;;9.63;7.35;;;;;;;4.32;100.00;100491.25;4963972;28;20285;-83
2022/02/23 06:56:17;;;;;;;14.70;7.55;;;;;;;4.22;100.00;100492.31;4958433;28;20669;-80
2022/02/23 06:58:46;;;;;;;11.07;7.25;;;;;;;4.34;100.00;100489.44;4959291;28;20200;-81
2022/02/23 07:01:16;;;;;;;14.07;7.32;;;;;;;4.38;100.00;100491.13;4971348;28;20202;-81
2022/02/23 07:03:43;;;;;;;9.57;6.50;;;;;;;4.42;100.00;100502.63;4967696;28;20638;-81
2022/02/23 07:06:10;;;;;;;9.98;6.90;;;;;;;4.42;100.00;100509.75;4964984;28;20714;-82
2022/02/23 07:08:37;;;;;;;12.40;6.82;;;;;;;4.52;100.00;100503.31;4969692;28;20196;-81
2022/02/23 07:11:04;;;;;;;11.40;7.63;;;;;;;4.67;100.00;100513.72;4976111;28;20203;-82
2022/02/23 07:13:32;;;;;;;10.25;6.30;;;;;;;4.74;100.00;100510.00;4958080;28;20192;-80
2022/02/23 07:15:58;;;;;;;14.82;8.25;;;;;;;4.85;100.00;100517.81;4959243;28;20203;-81
2022/02/23 07:18:25;;;;;;;14.02;8.57;;;;;;;4.99;100.00;100514.84;4961022;28;20196;-80
2022/02/23 07:20:52;;;;;;;12.52;9.52;;;;;;;5.10;100.00;100515.50;4966777;28;20237;-81
2022/02/23 07:23:23;;;;;;;13.77;9.32;;;;;;;5.18;100.00;100510.91;4960930;28;20196;-79
2022/02/23 07:25:51;;;;;;;10.80;6.68;;;;;;;5.00;100.00;100520.16;4970539;28;20215;-82
2022/02/23 07:28:18;;;;;;;12.20;7.50;;;;;;;4.86;100.00;100513.34;4961969;28;20549;-83
2022/02/23 07:30:48;;;;;;;11.43;6.88;;;;;;;4.48;100.00;100513.19;4972272;28;20257;-83
2022/02/23 07:33:15;;;;;;;10.32;7.00;;;;;;;4.24;100.00;100509.16;4960533;28;20192;-81
2022/02/23 07:35:42;;;;;;;12.35;8.20;;;;;;;4.18;100.00;100511.94;4970683;28;20187;-82
2022/02/23 07:38:09;;;;;;;12.73;8.25;;;;;;;4.28;100.00;100515.34;4958097;28;20206;-81
2022/02/23 07:40:36;;;;;;;14.40;8.68;;;;;;;4.45;100.00;100512.34;4966259;28;20643;-80
2022/02/23 07:43:04;;;;;;;15.77;9.50;;;;;;;4.62;100.00;100522.72;4956101;29;20191;-81
2022/02/23 07:45:31;;;;;;;13.05;8.30;;;;;;;4.81;100.00;100526.78;4959901;28;20218;-82
2022/02/23 07:48:01;;;;;;;13.05;8.43;;;;;;;4.87;100.00;100515.97;4977215;28;20195;-83
2022/02/23 07:50:28;;;;;;;19.48;9.77;;;;;;;4.88;100.00;100520.41;4968340;28;20255;-83
2022/02/23 07:52:55;;;;;;;13.10;7.93;;;;;;;4.77;100.00;100525.97;4957013;28;20218;-81
2022/02/23 07:55:24;;;;;;;12.75;8.57;;;;;;;4.91;100.00;100522.16;4966287;28;20273;-82
2022/02/23 07:57:51;;;;;;;16.40;9.20;;;;;;;5.10;100.00;100526.19;4960347;28;20201;-86
2022/02/23 08:00:18;;;;;;;14.00;8.27;;;;;;;5.18;100.00;100521.56;4955143;28;20188;-82
2022/02/23 08:02:45;;;;;;;12.00;8.60;;;;;;;5.34;100.00;100530.13;4955953;28;20248;-82
2022/02/23 08:05:13;;;;;;;14.68;9.50;;;;;;;5.36;100.00;100514.97;4956081;29;20204;-81
2022/02/23 08:07:40;;;;;;;11.65;7.95;;;;;;;5.47;100.00;100525.38;4955579;29;20206;-81
2022/02/23 08:10:07;;;;;;;11.32;7.85;;;;;;;5.64;100.00;100528.56;4955958;29;20279;-81
2022/02/23 08:12:33;;;;;;;14.68;9.85;;;;;;;5.72;100.00;100528.41;4955886;29;20215;-82
2022/02/23 08:19:30;;;;;;;10.52;8.10;;;;;;;6.00;100.00;100517.06;4956436;29;20295;-82
2022/02/23 08:20:33;;;;;;;17.30;8.82;;;;;;;6.02;100.00;100508.09;4937686;29;20193;-82
2022/02/23 08:23:00;;;;;;;13.80;8.93;;;;;;;5.90;100.00;100521.75;4938331;29;20584;-82
2022/02/23 08:25:26;;;;;;;13.82;9.65;;;;;;;5.96;100.00;100515.38;4944327;29;20630;-86
2022/02/23 08:27:55;;;;;;;14.85;9.00;;;;;;;5.97;100.00;100515.34;4958152;29;20183;-85
2022/02/23 08:30:22;;;;;;;15.35;9.15;;;;;;;6.05;100.00;100510.69;4962058;28;20235;-86
2022/02/23 08:32:49;;;;;;;14.15;8.35;;;;;;;6.19;100.00;100514.81;4977486;28;20267;-87
2022/02/23 08:35:16;;;;;;;17.27;9.98;;;;;;;6.23;100.00;100509.34;4976010;28;20276;-83
2022/02/23 08:37:44;;;;;;;12.27;8.40;;;;;;;6.32;100.00;100508.22;4975070;28;20291;-85
2022/02/23 08:40:11;;;;;;;11.65;9.25;;;;;;;6.47;100.00;100513.16;4976573;28;20288;-82
2022/02/23 08:42:37;;;;;;;13.75;9.30;;;;;;;6.45;100.00;100515.00;4976936;28;20202;-82
2022/02/23 08:45:05;;;;;;;14.70;8.82;;;;;;;6.68;100.00;100516.19;4976131;28;20190;-83
2022/02/23 08:47:31;;;;;;;12.95;8.48;;;;;;;6.97;100.00;100517.19;4974351;28;20273;-86
2022/02/23 08:49:58;;;;;;;12.30;7.93;;;;;;;7.07;100.00;100524.00;4975114;28;20275;-86
2022/02/23 08:52:25;;;;;;;12.32;8.35;;;;;;;7.24;100.00;100518.16;4975849;28;20600;-85
2022/02/23 08:54:53;;;;;;;12.60;7.25;;;;;;;7.34;100.00;100518.75;4975332;28;20200;-85
2022/02/23 08:57:19;;;;;;;13.02;8.18;;;;;;;7.32;100.00;100513.44;4975911;28;20224;-84
2022/02/23 08:59:46;;;;;;;14.50;7.43;;;;;;;7.43;100.00;100510.44;4975738;28;20207;-87
2022/02/23 09:02:13;;;;;;;12.48;8.65;;;;;;;7.39;100.00;100512.31;4976118;28;20192;-84
2022/02/23 09:04:39;;;;;;;12.23;7.90;;;;;;;7.52;100.00;100508.34;4973828;28;20224;-84
2022/02/23 09:07:06;;;;;;;12.18;7.82;;;;;;;7.77;100.00;100504.91;4974864;28;20330;-81
2022/02/23 09:09:33;;;;;;;15.88;8.43;;;;;;;7.89;100.00;100508.97;4974464;28;20238;-87
2022/02/23 09:12:01;;;;;;;13.10;8.10;;;;;;;8.08;100.00;100506.59;4975091;28;20214;-89
2022/02/23 09:14:27;;;;;;;11.93;7.15;;;;;;;8.19;100.00;100514.28;4976681;28;20280;-87
2022/02/23 09:16:54;;;;;;;19.58;8.25;;;;;;;8.23;100.00;100502.50;4976123;28;20645;-86
2022/02/23 09:19:20;;;;;;;10.10;6.65;;;;;;;8.31;100.00;100501.31;4975946;28;20204;-89
2022/02/23 09:21:47;;;;;;;12.98;8.82;;;;;;;8.48;100.00;100495.41;4974698;28;20280;-79
2022/02/23 09:24:14;;;;;;;11.60;6.53;;;;;;;8.35;100.00;100502.97;4974135;28;20360;-83
2022/02/23 09:26:41;;;;;;;13.93;7.10;;;;;;;8.35;100.00;100508.31;4974072;28;20307;-88
2022/02/23 09:29:10;;;;;;;14.50;7.95;;;;;;;8.42;100.00;100500.97;4975446;28;20580;-87
2022/02/23 09:31:38;;;;;;;13.38;7.72;;;;;;;8.31;100.00;100500.44;4975800;28;20299;-89
2022/02/23 09:34:04;;;;;;;18.50;9.23;;;;;;;8.59;100.00;100507.53;4975912;28;20217;-87
2022/02/23 09:36:31;;;;;;;11.77;7.18;;;;;;;8.96;100.00;100507.97;4965766;28;20191;-81
2022/02/23 09:38:58;;;;;;;14.45;7.35;;;;;;;9.24;100.00;100504.25;4954661;29;20194;-82
2022/02/23 09:41:24;;;;;;;13.82;6.85;;;;;;;9.42;100.00;100507.16;4955367;29;20296;-84
2022/02/23 09:43:54;;;;;;;13.15;6.63;;;;;;;9.47;100.00;100510.53;4954346;29;20205;-84
2022/02/23 09:46:23;;;;;;;16.15;9.00;;;;;;;9.43;100.00;100496.38;4955243;29;20265;-85
2022/02/23 09:48:52;;;;;;;17.13;7.68;;;;;;;9.59;100.00;100493.94;4955708;29;20571;-84
2022/02/23 09:51:19;;;;;;;14.23;6.93;;;;;;;9.39;100.00;100500.97;4954855;29;20241;-84
2022/02/23 09:53:46;;;;;;;9.90;6.45;;;;;;;9.46;100.00;100498.06;4954623;29;20193;-85
2022/02/23 09:56:14;;;;;;;21.33;10.63;;;;;;;9.40;100.00;100491.94;4954371;29;20599;-85
2022/02/23 09:58:41;;;;;;;13.63;8.82;;;;;;;9.47;100.00;100491.72;4955064;29;20241;-84
2022/02/23 10:01:08;;;;;;;12.00;7.63;;;;;;;9.68;100.00;100485.50;4953546;29;20284;-81
2022/02/23 10:03:38;;;;;;;12.70;6.47;;;;;;;10.02;100.00;100479.63;4953828;29;20191;-79
2022/02/23 10:06:05;;;;;;;12.88;8.25;;;;;;;10.22;100.00;100494.94;4954003;29;20224;-80
2022/02/23 10:08:33;;;;;;;12.00;6.72;;;;;;;10.41;100.00;100486.09;4954224;29;20751;-80
2022/02/23 10:11:01;;;;;;;9.05;5.03;;;;;;;10.47;100.00;100483.13;4953512;29;20220;-79
2022/02/23 10:13:28;;;;;;;9.65;5.38;;;;;;;10.61;98.91;100485.22;4953943;29;20189;-80
2022/02/23 10:15:58;;;;;;;10.95;5.90;;;;;;;10.70;98.83;100490.19;4954045;29;20243;-80
2022/02/23 10:18:28;;;;;;;10.30;4.35;;;;;;;10.57;87.53;100476.38;4954185;29;20699;-80
2022/02/23 10:20:56;;;;;;;8.25;3.85;;;;;;;10.68;87.49;100488.53;4953800;29;20195;-80
2022/02/23 10:23:25;;;;;;;13.23;4.05;;;;;;;10.74;87.88;100480.16;4952885;29;20212;-79
2022/02/23 10:25:54;;;;;;;10.15;4.20;;;;;;;10.82;86.57;100476.16;4953342;29;20189;-80
2022/02/23 10:28:23;;;;;;;8.15;4.40;;;;;;;10.75;85.06;100481.91;4953526;29;20203;-79
2022/02/23 10:30:52;;;;;;;6.95;3.75;;;;;;;10.64;77.14;100480.56;4960926;28;20676;-79
2022/02/23 10:33:20;;;;;;;7.28;3.60;;;;;;;10.49;73.23;100480.34;4972871;28;20226;-80
2022/02/23 10:35:51;;;;;;;7.65;3.30;;;;;;;10.85;70.85;100476.03;4972714;28;20203;-81
2022/02/23 10:38:25;;;;;;;12.75;3.70;;;;;;;11.12;71.18;100478.41;4973605;28;20209;-79
2022/02/23 10:40:54;;;;;;;10.27;5.20;;;;;;;11.38;66.74;100471.78;4972686;28;20280;-80
2022/02/23 10:43:26;;;;;;;5.10;3.25;;;;;;;11.16;67.77;100471.06;4972788;28;20195;-80
2022/02/23 10:46:00;;;;;;;9.32;3.60;;;;;;;11.45;67.09;100483.16;4972597;28;20192;-80
2022/02/23 10:48:31;;;;;;;9.75;2.78;;;;;;;11.54;59.29;100479.16;4973081;28;20184;-79
2022/02/23 10:50:58;;;;;;;6.95;2.60;;;;;;;11.64;55.79;100486.72;4972694;28;20410;-80
2022/02/23 10:53:28;;;;;;;9.75;4.20;;;;;;;11.71;58.29;100479.19;4973048;28;20250;-80
2022/02/23 10:55:55;;;;;;;5.68;2.97;;;;;;;11.81;58.48;100477.81;4972342;28;20227;-80
2022/02/23 10:58:25;;;;;;;6.78;3.10;;;;;;;11.94;58.71;100477.22;4972766;28;20290;-80
2022/02/23 11:00:55;;;;;;;9.30;6.25;;;;;;;11.51;61.70;100471.19;4972486;28;20301;-80
2022/02/23 11:03:22;;;;;;;8.55;3.72;;;;;;;11.92;61.08;100462.94;4972833;28;20232;-80
2022/02/23 11:05:50;;;;;;;9.48;3.90;;;;;;;12.00;61.35;100460.72;4972709;28;20189;-80
2022/02/23 11:08:17;;;;;;;9.70;3.30;;;;;;;12.02;59.34;100461.53;4972941;28;20276;-80
2022/02/23 11:10:47;;;;;;;9.55;3.10;;;;;;;12.18;58.78;100461.63;4972584;28;20274;-80
2022/02/23 11:13:15;;;;;;;7.20;2.80;;;;;;;12.17;55.25;100466.16;4972806;28;20181;-81
2022/02/23 11:15:44;;;;;;;11.90;4.80;;;;;;;11.96;56.59;100454.63;4972890;28;20200;-81
2022/02/23 11:18:13;;;;;;;6.10;2.78;;;;;;;12.07;53.72;100459.47;4972722;28;20199;-80
2022/02/23 11:20:42;;;;;;;9.35;2.45;;;;;;;12.17;52.84;100460.75;4972279;28;20199;-81
2022/02/23 11:23:15;;;;;;;7.97;2.67;;;;;;;12.07;54.00;100460.34;4972639;28;20600;-80
2022/02/23 11:25:43;;;;;;;8.25;3.28;;;;;;;11.94;54.38;100448.44;4972478;28;20184;-81
2022/02/23 11:28:17;;;;;;;10.43;3.97;;;;;;;12.10;54.37;100451.22;4971739;28;20208;-81